createdAt,value
2023-04-26T00:02:40.175Z,99776.22
2023-04-26T00:05:43.477Z,99780.44
2023-04-26T00:08:45.959Z,99784.00
2023-04-26T00:11:48.778Z,99786.34
2023-04-26T00:14:51.155Z,99793.31
2023-04-26T00:17:53.845Z,99792.50
2023-04-26T00:20:56.133Z,99786.50
2023-04-26T00:23:58.768Z,99791.75
2023-04-26T00:27:01.531Z,99794.19
2023-04-26T00:30:04.466Z,99802.75
2023-04-26T00:33:07.050Z,99811.47
2023-04-26T00:36:09.911Z,99803.72
2023-04-26T00:39:12.897Z,99801.13
2023-04-26T00:42:15.825Z,99809.13
2023-04-26T00:45:18.168Z,99817.06
2023-04-26T00:48:20.947Z,99821.31
2023-04-26T00:51:23.410Z,99824.16
2023-04-26T00:54:26.270Z,99823.56
2023-04-26T00:57:28.814Z,99819.56
2023-04-26T01:00:32.144Z,99826.72
2023-04-26T01:03:34.991Z,99829.56
2023-04-26T01:06:38.631Z,99824.47
2023-04-26T01:09:41.103Z,99834.41
2023-04-26T01:12:43.741Z,99832.13
2023-04-26T01:15:47.121Z,99835.16
2023-04-26T01:18:53.978Z,99835.97
2023-04-26T01:21:56.747Z,99832.50
2023-04-26T01:24:59.770Z,99838.56
2023-04-26T01:28:02.147Z,99835.97
2023-04-26T01:31:04.943Z,99833.66
2023-04-26T01:34:07.408Z,99845.91
2023-04-26T01:37:10.167Z,99844.22
2023-04-26T01:40:12.699Z,99843.44
2023-04-26T01:43:15.688Z,99854.66
2023-04-26T01:46:18.017Z,99852.88
2023-04-26T01:49:21.494Z,99857.25
2023-04-26T01:52:23.900Z,99854.75
2023-04-26T01:55:27.364Z,99859.06
2023-04-26T01:58:29.950Z,99856.53
2023-04-26T02:01:33.030Z,99863.41
2023-04-26T02:04:35.671Z,99864.22
2023-04-26T02:07:38.769Z,99860.00
2023-04-26T02:10:41.756Z,99870.25
2023-04-26T02:13:44.497Z,99867.66
2023-04-26T02:16:47.076Z,99870.34
2023-04-26T02:19:49.434Z,99866.78
2023-04-26T02:22:52.650Z,99864.91
2023-04-26T02:25:55.044Z,99875.12
2023-04-26T02:28:57.786Z,99879.37
2023-04-26T02:32:00.559Z,99879.31
2023-04-26T02:35:03.484Z,99882.84
2023-04-26T02:38:05.909Z,99878.09
2023-04-26T02:41:08.566Z,99874.00
2023-04-26T02:44:11.500Z,99882.59
2023-04-26T02:47:14.277Z,99872.37
2023-04-26T02:50:16.688Z,99881.22
2023-04-26T02:53:19.395Z,99881.09
2023-04-26T02:56:21.707Z,99886.25
2023-04-26T02:59:24.284Z,99892.19
2023-04-26T03:02:26.888Z,99896.28
2023-04-26T03:05:29.977Z,99903.28
2023-04-26T03:08:35.028Z,99915.47
2023-04-26T03:11:37.894Z,99915.31
2023-04-26T03:14:40.281Z,99925.94
2023-04-26T03:17:43.410Z,99926.13
2023-04-26T03:20:46.626Z,99933.75
2023-04-26T03:23:49.821Z,99933.66
2023-04-26T03:26:52.673Z,99944.12
2023-04-26T03:29:55.465Z,99936.34
2023-04-26T03:32:58.189Z,99952.94
2023-04-26T03:36:01.074Z,99954.00
2023-04-26T03:39:04.528Z,99950.00
2023-04-26T03:42:07.385Z,99960.34
2023-04-26T03:45:10.037Z,99964.00
2023-04-26T03:48:12.741Z,99964.16
2023-04-26T03:51:15.231Z,99957.91
2023-04-26T03:54:17.987Z,99963.13
2023-04-26T03:57:20.672Z,99969.41
2023-04-26T04:00:23.557Z,99969.47
2023-04-26T04:03:27.740Z,99973.00
2023-04-26T04:06:31.121Z,99982.56
2023-04-26T04:09:33.922Z,99980.03
2023-04-26T04:12:36.663Z,99981.47
2023-04-26T04:15:39.542Z,99991.88
2023-04-26T04:18:41.912Z,99996.75
2023-04-26T04:21:45.628Z,99982.78
2023-04-26T04:24:48.082Z,99986.16
2023-04-26T04:27:51.951Z,99973.94
2023-04-26T04:30:54.541Z,99967.75
2023-04-26T04:33:57.267Z,99988.09
2023-04-26T04:36:59.655Z,100003.37
2023-04-26T04:40:02.912Z,100006.69
2023-04-26T04:43:10.518Z,100018.50
2023-04-26T04:46:13.351Z,100018.31
2023-04-26T04:49:16.057Z,100023.56
2023-04-26T04:52:21.420Z,100021.91
2023-04-26T04:55:23.961Z,100030.56
2023-04-26T04:58:27.817Z,100038.94
2023-04-26T05:01:32.512Z,100041.59
2023-04-26T05:04:35.565Z,100039.03
2023-04-26T05:07:38.087Z,100053.75
2023-04-26T05:10:41.611Z,100056.59
2023-04-26T05:13:44.295Z,100058.19
2023-04-26T05:16:47.315Z,100051.16
2023-04-26T05:19:49.850Z,100058.59
2023-04-26T05:22:52.611Z,100058.53
2023-04-26T05:25:54.930Z,100064.25
2023-04-26T05:29:00.061Z,100061.44
2023-04-26T05:32:02.942Z,100068.94
2023-04-26T05:35:05.948Z,100067.66
2023-04-26T05:38:09.032Z,100071.00
2023-04-26T05:41:11.935Z,100068.03
2023-04-26T05:44:17.078Z,100073.09
2023-04-26T05:47:19.962Z,100074.56
2023-04-26T05:50:22.502Z,100075.28
2023-04-26T05:53:25.953Z,100083.69
2023-04-26T05:56:28.437Z,100087.22
2023-04-26T05:59:33.036Z,100088.84
2023-04-26T06:02:36.217Z,100095.16
2023-04-26T06:05:39.179Z,100091.63
2023-04-26T06:08:42.774Z,100094.87
2023-04-26T06:11:46.685Z,100096.91
2023-04-26T06:14:49.249Z,100099.78
2023-04-26T06:17:52.348Z,100108.03
2023-04-26T06:20:55.417Z,100108.13
2023-04-26T06:23:58.315Z,100112.81
2023-04-26T06:27:01.741Z,100110.38
2023-04-26T06:30:06.698Z,100113.12
2023-04-26T06:33:10.273Z,100120.16
2023-04-26T06:36:14.609Z,100111.81
2023-04-26T06:39:17.619Z,100099.72
2023-04-26T06:42:20.835Z,100106.03
2023-04-26T06:45:23.667Z,100105.72
2023-04-26T06:48:27.410Z,100099.56
2023-04-26T06:51:29.841Z,100105.69
2023-04-26T06:54:34.562Z,100105.91
2023-04-26T06:57:38.652Z,100105.31
2023-04-26T07:00:41.318Z,100084.37
2023-04-26T07:03:43.847Z,100118.44
2023-04-26T07:06:46.774Z,100111.25
2023-04-26T07:09:49.936Z,100118.72
2023-04-26T07:12:52.567Z,100102.81
2023-04-26T07:15:55.257Z,100118.81
2023-04-26T07:19:01.061Z,100116.59
2023-04-26T07:22:04.416Z,100117.03
2023-04-26T07:25:07.539Z,100114.13
2023-04-26T07:28:09.907Z,100115.50
2023-04-26T07:31:12.786Z,100115.37
2023-04-26T07:34:15.267Z,100122.06
2023-04-26T07:37:17.932Z,100132.84
2023-04-26T07:40:22.714Z,100143.69
2023-04-26T07:43:26.049Z,100136.19
2023-04-26T07:46:28.393Z,100137.75
2023-04-26T07:49:31.199Z,100143.62
2023-04-26T07:52:34.244Z,100145.72
2023-04-26T07:55:37.623Z,100149.34
2023-04-26T07:58:40.108Z,100160.34
2023-04-26T08:01:42.779Z,100152.09
2023-04-26T08:04:52.956Z,100151.19
2023-04-26T08:07:55.757Z,100146.81
2023-04-26T08:10:58.368Z,100160.19
2023-04-26T08:14:00.822Z,100152.53
2023-04-26T08:17:03.626Z,100152.75
2023-04-26T08:20:07.061Z,100154.50
2023-04-26T08:23:10.828Z,100161.19
2023-04-26T08:26:13.140Z,100174.88
2023-04-26T08:29:16.551Z,100182.84
2023-04-26T08:32:18.963Z,100177.38
2023-04-26T08:35:27.615Z,100172.16
2023-04-26T08:38:30.765Z,100181.09
2023-04-26T08:41:37.360Z,100180.34
2023-04-26T08:44:41.399Z,100184.59
2023-04-26T08:47:46.699Z,100178.19
2023-04-26T08:50:49.474Z,100180.06
2023-04-26T08:53:53.639Z,100187.84
2023-04-26T08:56:58.765Z,100188.78
2023-04-26T09:00:05.928Z,100188.34
2023-04-26T09:03:08.503Z,100194.06
2023-04-26T09:06:11.550Z,100188.12
2023-04-26T09:09:16.362Z,100188.88
2023-04-26T09:12:20.618Z,100189.44
2023-04-26T09:15:23.745Z,100193.84
2023-04-26T09:18:26.595Z,100197.22
2023-04-26T09:21:29.992Z,100193.37
2023-04-26T09:24:48.745Z,100177.88
2023-04-26T09:27:51.248Z,100188.63
2023-04-26T09:30:54.031Z,100177.59
2023-04-26T09:33:59.939Z,100177.06
2023-04-26T09:37:02.496Z,100167.03
2023-04-26T09:40:10.483Z,100182.34
2023-04-26T09:43:14.450Z,100197.25
2023-04-26T09:46:23.937Z,100186.66
2023-04-26T09:49:27.415Z,100172.72
2023-04-26T09:52:30.085Z,100170.97
2023-04-26T09:55:35.451Z,100176.63
2023-04-26T09:58:39.303Z,100178.50
2023-04-26T10:01:42.181Z,100182.50
2023-04-26T10:04:47.066Z,100178.56
2023-04-26T10:07:50.786Z,100180.97
2023-04-26T10:10:54.345Z,100170.88
2023-04-26T10:13:56.836Z,100176.03
2023-04-26T10:16:59.649Z,100174.91
2023-04-26T10:20:05.093Z,100168.53
2023-04-26T10:23:17.278Z,100173.97
2023-04-26T10:26:38.449Z,100179.69
2023-04-26T10:29:56.618Z,100173.13
2023-04-26T10:32:59.014Z,100177.13
2023-04-26T10:36:14.016Z,100186.63
2023-04-26T10:39:23.271Z,100187.06
2023-04-26T10:42:27.759Z,100187.03
2023-04-26T10:45:30.426Z,100188.53
2023-04-26T10:48:33.441Z,100184.00
2023-04-26T10:51:37.514Z,100192.13
2023-04-26T10:54:56.998Z,100180.31
2023-04-26T10:57:59.382Z,100177.53
2023-04-26T11:01:21.196Z,100187.72
2023-04-26T11:04:24.090Z,100185.87
2023-04-26T11:07:39.456Z,100177.06
2023-04-26T11:10:42.297Z,100179.50
2023-04-26T11:13:45.654Z,100163.53
2023-04-26T11:16:48.058Z,100181.38
2023-04-26T11:19:51.173Z,100173.56
2023-04-26T11:22:54.000Z,100180.53
2023-04-26T11:26:02.876Z,100172.47
2023-04-26T11:29:08.010Z,100178.22
2023-04-26T11:32:28.941Z,100170.13
2023-04-26T11:35:39.063Z,100182.78
2023-04-26T11:38:41.834Z,100186.50
2023-04-26T11:41:44.204Z,100188.28
2023-04-26T11:44:47.798Z,100192.75
2023-04-26T11:47:50.568Z,100187.97
2023-04-26T11:50:54.052Z,100198.81
2023-04-26T11:54:01.364Z,100193.59
2023-04-26T11:57:16.155Z,100190.72
2023-04-26T12:00:20.188Z,100189.87
2023-04-26T12:03:23.425Z,100193.34
2023-04-26T12:06:29.292Z,100196.91
2023-04-26T12:09:32.110Z,100191.31
2023-04-26T12:12:34.387Z,100193.22
2023-04-26T12:15:37.119Z,100192.75
2023-04-26T12:18:39.825Z,100182.44
2023-04-26T12:21:43.576Z,100183.63
2023-04-26T12:24:48.132Z,100194.69
2023-04-26T12:27:50.735Z,100199.22
2023-04-26T12:30:53.036Z,100200.28
2023-04-26T12:33:55.724Z,100200.66
2023-04-26T12:36:58.138Z,100197.72
2023-04-26T12:40:01.116Z,100197.22
2023-04-26T12:43:03.528Z,100201.53
2023-04-26T12:46:06.278Z,100190.53
2023-04-26T12:49:09.535Z,100195.91
2023-04-26T12:52:12.264Z,100201.00
2023-04-26T12:55:15.554Z,100195.41
2023-04-26T12:58:18.208Z,100199.84
2023-04-26T13:01:20.895Z,100200.13
2023-04-26T13:04:23.773Z,100194.13
2023-04-26T13:07:26.839Z,100196.44
2023-04-26T13:10:29.624Z,100206.81
2023-04-26T13:13:43.062Z,100220.28
2023-04-26T13:16:46.176Z,100224.03
2023-04-26T13:19:48.633Z,100202.34
2023-04-26T13:22:51.383Z,100211.06
2023-04-26T13:25:53.768Z,100206.87
2023-04-26T13:28:56.588Z,100217.09
2023-04-26T13:32:02.948Z,100215.75
2023-04-26T13:35:06.049Z,100218.09
2023-04-26T13:38:08.440Z,100223.94
2023-04-26T13:41:11.229Z,100208.31
2023-04-26T13:44:15.726Z,100215.66
2023-04-26T13:47:18.563Z,100219.72
2023-04-26T13:50:20.928Z,100226.78
2023-04-26T13:53:23.652Z,100232.03
2023-04-26T13:56:26.384Z,100240.28
2023-04-26T13:59:29.148Z,100245.91
2023-04-26T14:02:31.762Z,100244.19
2023-04-26T14:05:34.597Z,100242.50
2023-04-26T14:08:37.448Z,100242.50
2023-04-26T14:11:40.198Z,100248.50
2023-04-26T14:14:42.507Z,100242.38
2023-04-26T14:17:47.086Z,100241.81
2023-04-26T14:20:49.668Z,100246.19
2023-04-26T14:23:52.370Z,100246.66
2023-04-26T14:26:54.921Z,100252.69
2023-04-26T14:29:57.547Z,100249.22
2023-04-26T14:32:59.926Z,100258.94
2023-04-26T14:36:02.533Z,100253.59
2023-04-26T14:39:05.723Z,100252.28
2023-04-26T14:42:08.765Z,100252.34
2023-04-26T14:45:11.641Z,100259.72
2023-04-26T14:48:14.452Z,100260.56
2023-04-26T14:51:17.071Z,100259.12
2023-04-26T14:54:19.729Z,100261.78
2023-04-26T14:57:22.392Z,100266.44
2023-04-26T15:00:25.904Z,100263.75
2023-04-26T15:03:28.439Z,100268.88
2023-04-26T15:06:34.122Z,100271.97
2023-04-26T15:09:37.086Z,100278.47
2023-04-26T15:12:39.779Z,100267.25
2023-04-26T15:15:42.228Z,100285.88
2023-04-26T15:18:44.831Z,100274.34
2023-04-26T15:21:47.173Z,100275.88
2023-04-26T15:24:51.010Z,100275.88
2023-04-26T15:27:53.442Z,100283.50
2023-04-26T15:31:03.133Z,100289.69
2023-04-26T15:34:05.876Z,100292.16
2023-04-26T15:37:08.679Z,100294.91
2023-04-26T15:40:12.130Z,100296.06
2023-04-26T15:43:16.336Z,100286.44
2023-04-26T15:46:18.897Z,100287.16
2023-04-26T15:49:23.271Z,100292.66
2023-04-26T15:52:25.875Z,100289.81
2023-04-26T15:55:28.504Z,100277.44
2023-04-26T15:58:31.140Z,100279.22
2023-04-26T16:01:34.555Z,100284.50
2023-04-26T16:04:37.394Z,100282.53
2023-04-26T16:07:40.235Z,100271.81
2023-04-26T16:10:43.026Z,100282.44
2023-04-26T16:13:45.787Z,100281.72
2023-04-26T16:16:48.560Z,100280.87
2023-04-26T16:19:51.284Z,100281.72
2023-04-26T16:22:54.112Z,100298.09
2023-04-26T16:25:56.610Z,100298.31
2023-04-26T16:28:59.208Z,100300.25
2023-04-26T16:32:02.068Z,100307.12
2023-04-26T16:35:05.143Z,100306.78
2023-04-26T16:38:07.814Z,100312.50
2023-04-26T16:41:11.009Z,100309.69
2023-04-26T16:44:13.875Z,100316.03
2023-04-26T16:47:16.494Z,100322.88
2023-04-26T16:50:21.558Z,100319.75
2023-04-26T16:53:24.218Z,100329.56
2023-04-26T16:56:26.748Z,100327.38
2023-04-26T16:59:29.429Z,100333.75
2023-04-26T17:02:32.079Z,100328.28
2023-04-26T17:05:41.384Z,100331.94
2023-04-26T17:08:43.698Z,100339.44
2023-04-26T17:11:46.902Z,100349.37
2023-04-26T17:14:49.376Z,100343.13
2023-04-26T17:17:53.047Z,100340.91
2023-04-26T17:20:56.437Z,100346.38
2023-04-26T17:23:59.413Z,100350.13
2023-04-26T17:27:02.850Z,100350.28
2023-04-26T17:30:06.171Z,100358.06
2023-04-26T17:33:10.069Z,100349.31
2023-04-26T17:36:12.732Z,100353.06
2023-04-26T17:39:15.221Z,100357.88
2023-04-26T17:42:17.898Z,100351.91
2023-04-26T17:45:20.432Z,100364.12
2023-04-26T17:48:23.043Z,100360.75
2023-04-26T17:51:25.798Z,100380.78
2023-04-26T17:54:28.541Z,100379.28
2023-04-26T17:57:31.004Z,100390.50
2023-04-26T18:00:34.008Z,100392.34
2023-04-26T18:03:36.720Z,100391.31
2023-04-26T18:06:39.957Z,100402.75
2023-04-26T18:09:42.706Z,100403.06
2023-04-26T18:12:45.260Z,100393.94
2023-04-26T18:15:48.005Z,100404.72
2023-04-26T18:18:50.421Z,100404.31
2023-04-26T18:21:53.634Z,100408.78
2023-04-26T18:24:56.101Z,100406.50
2023-04-26T18:27:58.818Z,100411.22
2023-04-26T18:31:01.242Z,100417.72
2023-04-26T18:34:03.999Z,100417.16
2023-04-26T18:37:06.380Z,100419.94
2023-04-26T18:40:09.512Z,100422.44
2023-04-26T18:43:12.048Z,100424.69
2023-04-26T18:46:14.667Z,100429.34
2023-04-26T18:49:17.400Z,100434.72
2023-04-26T18:52:20.243Z,100437.19
2023-04-26T18:55:22.821Z,100442.28
2023-04-26T18:58:25.566Z,100446.75
2023-04-26T19:01:28.178Z,100459.72
2023-04-26T19:04:31.071Z,100455.50
2023-04-26T19:07:33.640Z,100459.94
2023-04-26T19:10:36.912Z,100458.66
2023-04-26T19:13:42.785Z,100458.69
2023-04-26T19:16:45.409Z,100464.09
2023-04-26T19:19:51.569Z,100451.88
2023-04-26T19:22:54.546Z,100448.78
2023-04-26T19:26:08.159Z,100458.91
2023-04-26T19:29:11.194Z,100459.78
2023-04-26T19:32:14.459Z,100467.13
2023-04-26T19:35:17.233Z,100460.81
2023-04-26T19:38:19.788Z,100465.38
2023-04-26T19:41:23.949Z,100464.03
2023-04-26T19:44:27.345Z,100467.81
2023-04-26T19:47:30.235Z,100475.69
2023-04-26T19:50:32.634Z,100480.25
2023-04-26T19:53:35.361Z,100478.66
2023-04-26T19:56:43.482Z,100471.84
2023-04-26T19:59:46.214Z,100471.88
2023-04-26T20:02:49.734Z,100483.66
2023-04-26T20:05:52.965Z,100478.50
2023-04-26T20:08:55.435Z,100481.63
2023-04-26T20:11:58.253Z,100488.66
2023-04-26T20:15:00.946Z,100493.09
2023-04-26T20:18:03.716Z,100496.56
2023-04-26T20:21:06.364Z,100497.63
2023-04-26T20:24:09.343Z,100496.75
2023-04-26T20:27:11.840Z,100505.63
2023-04-26T20:30:15.034Z,100495.34
2023-04-26T20:33:17.746Z,100500.91
2023-04-26T20:36:20.776Z,100502.91
2023-04-26T20:39:23.197Z,100504.94
2023-04-26T20:42:25.888Z,100514.69
2023-04-26T20:45:28.174Z,100521.75
2023-04-26T20:48:30.844Z,100518.41
2023-04-26T20:51:33.426Z,100521.81
2023-04-26T20:54:36.211Z,100512.00
2023-04-26T20:57:38.838Z,100508.75
2023-04-26T21:00:42.301Z,100515.63
2023-04-26T21:03:44.863Z,100514.13
2023-04-26T21:06:47.552Z,100527.12
2023-04-26T21:09:50.033Z,100528.13
2023-04-26T21:12:53.635Z,100530.88
2023-04-26T21:15:56.134Z,100529.25
2023-04-26T21:18:58.737Z,100533.75
2023-04-26T21:22:01.400Z,100546.88
2023-04-26T21:25:04.478Z,100549.66
2023-04-26T21:28:06.898Z,100552.37
2023-04-26T21:31:09.998Z,100554.22
2023-04-26T21:34:14.910Z,100548.28
2023-04-26T21:37:17.509Z,100542.41
2023-04-26T21:40:19.957Z,100555.41
2023-04-26T21:43:22.876Z,100552.88
2023-04-26T21:46:26.381Z,100562.44
2023-04-26T21:49:29.251Z,100556.50
2023-04-26T21:52:31.957Z,100557.38
2023-04-26T21:55:34.649Z,100555.75
2023-04-26T21:58:37.536Z,100554.94
2023-04-26T22:01:41.280Z,100562.75
2023-04-26T22:04:43.950Z,100562.81
2023-04-26T22:07:46.319Z,100557.66
2023-04-26T22:10:49.726Z,100561.06
2023-04-26T22:13:52.011Z,100568.00
2023-04-26T22:16:54.790Z,100567.09
2023-04-26T22:19:57.213Z,100573.94
2023-04-26T22:22:59.876Z,100574.06
2023-04-26T22:26:02.226Z,100570.66
2023-04-26T22:29:05.013Z,100576.66
2023-04-26T22:32:07.798Z,100580.19
2023-04-26T22:35:10.870Z,100583.63
2023-04-26T22:38:13.206Z,100585.34
2023-04-26T22:41:15.969Z,100584.50
2023-04-26T22:44:18.441Z,100592.31
2023-04-26T22:47:22.968Z,100597.44
2023-04-26T22:50:25.452Z,100597.47
2023-04-26T22:53:28.080Z,100601.78
2023-04-26T22:56:30.704Z,100598.41
2023-04-26T22:59:36.212Z,100606.16
2023-04-26T23:02:38.596Z,100607.00
2023-04-26T23:05:41.591Z,100608.75
2023-04-26T23:08:44.331Z,100611.38
2023-04-26T23:11:47.009Z,100610.53
2023-04-26T23:14:50.684Z,100614.00
2023-04-26T23:17:53.951Z,100610.63
2023-04-26T23:20:56.549Z,100614.81
2023-04-26T23:23:59.481Z,100626.87
2023-04-26T23:27:02.699Z,100623.53
2023-04-26T23:30:06.248Z,100638.09
2023-04-26T23:33:08.734Z,100636.28
2023-04-26T23:36:11.533Z,100639.69
2023-04-26T23:39:14.073Z,100638.91
2023-04-26T23:42:16.908Z,100637.22
2023-04-26T23:45:19.545Z,100635.50
2023-04-26T23:48:22.128Z,100638.06
2023-04-26T23:51:24.490Z,100634.59
2023-04-26T23:54:27.324Z,100627.72
2023-04-26T23:57:29.664Z,100631.19
